Time;durP1;ratioP1;P1;durP2;ratioP2;P2;SDS_P1;SDS_P2;PMS_P1;PMS_P2;Temp;Humidity;BMP_temperature;BMP_pressure;BME280_temperature;BME280_humidity;BME280_pressure;Samples;Min_cycle;Max_cycle;Signal;HPM_P1;HPM_P2
2022/12/14 08:35:25;;;;;;;;;14.25;10.00;;;;;16.71;27.13;99549.34;5059370;28;45285;-41
2022/12/14 08:37:51;;;;;;;;;12.00;12.00;;;;;16.69;27.44;99554.69;5062391;28;45278;-43
2022/12/14 08:40:16;;;;;;;;;13.00;13.00;;;;;16.69;27.41;99556.47;5060980;28;45336;-42
2022/12/14 08:42:42;;;;;;;;;13.50;13.50;;;;;16.72;27.39;99558.03;5063034;28;46130;-40
2022/12/14 08:45:07;;;;;;;;;14.25;13.25;;;;;16.75;27.32;99565.72;5062658;28;45238;-42
2022/12/14 08:47:33;;;;;;;;;14.00;12.75;;;;;16.78;27.30;99562.91;5060575;28;45370;-41
2022/12/14 08:49:58;;;;;;;;;17.67;12.67;;;;;16.82;27.38;99562.66;5061106;28;45547;-40
2022/12/14 08:52:23;;;;;;;;;15.00;12.25;;;;;16.87;27.24;99564.16;5078246;28;46043;-46
2022/12/14 08:54:49;;;;;;;;;13.67;13.00;;;;;16.91;27.23;99556.03;5070406;28;46111;-47
2022/12/14 08:57:14;;;;;;;;;13.00;12.00;;;;;16.96;27.37;99564.47;5060955;28;45403;-42
2022/12/14 08:59:39;;;;;;;;;11.25;10.25;;;;;17.00;27.38;99572.97;5069817;28;45520;-41
2022/12/14 09:02:05;;;;;;;;;14.50;13.25;;;;;17.05;27.28;99573.53;5066428;28;45462;-44
2022/12/14 09:04:30;;;;;;;;;14.75;13.00;;;;;17.07;27.37;99570.81;5066462;28;54570;-45
2022/12/14 09:06:56;;;;;;;;;15.33;14.33;;;;;17.10;27.25;99575.88;5074548;28;54050;-42
2022/12/14 09:09:21;;;;;;;;;13.67;12.33;;;;;17.15;27.06;99579.91;5073092;28;45355;-48
2022/12/14 09:11:46;;;;;;;;;15.50;14.25;;;;;17.20;27.13;99581.41;5061544;28;45436;-41
2022/12/14 09:14:12;;;;;;;;;9.00;9.00;;;;;17.22;27.04;99576.88;5059975;28;45298;-41
2022/12/14 09:16:38;;;;;;;;;14.25;12.50;;;;;17.23;27.10;99582.06;5059838;28;45335;-43
2022/12/14 09:19:04;;;;;;;;;14.00;10.75;;;;;17.28;26.98;99595.69;5060522;28;45489;-41
2022/12/14 09:21:30;;;;;;;;;13.00;13.00;;;;;17.33;27.06;99603.25;5063411;28;47264;-43
2022/12/14 09:23:55;;;;;;;;;15.75;14.75;;;;;17.35;26.97;99598.78;5081925;28;45147;-42
2022/12/14 09:26:22;;;;;;;;;14.25;12.75;;;;;17.37;26.97;99604.75;5064807;28;45148;-42
2022/12/14 09:28:50;;;;;;;;;14.50;12.25;;;;;17.40;27.12;99611.59;5060504;28;45446;-43
2022/12/14 09:31:18;;;;;;;;;17.25;13.75;;;;;17.43;27.01;99619.25;5059711;28;45352;-42
2022/12/14 09:33:43;;;;;;;;;14.50;12.75;;;;;17.44;26.94;99620.94;5062021;28;45241;-43
2022/12/14 09:36:20;;;;;;;;;16.50;13.00;;;;;17.47;27.09;99620.75;5061393;28;45364;-45
2022/12/14 09:38:46;;;;;;;;;18.00;14.75;;;;;17.49;26.85;99629.34;5058802;28;45378;-44
2022/12/14 09:41:24;;;;;;;;;16.75;15.00;;;;;17.50;26.85;99630.19;5059005;28;45818;-41
2022/12/14 09:43:57;;;;;;;;;19.00;14.25;;;;;17.51;26.75;99631.88;5060027;28;45415;-41
2022/12/14 09:46:41;;;;;;;;;10.25;10.25;;;;;17.52;26.83;99623.94;5041498;28;45292;-43
2022/12/14 09:49:25;;;;;;;;;14.75;13.50;;;;;17.53;26.86;99638.72;5063490;28;45252;-41
2022/12/14 09:51:54;;;;;;;;;13.75;13.00;;;;;17.54;26.91;99631.69;5066855;28;46448;-44
2022/12/14 09:54:25;;;;;;;;;14.75;12.50;;;;;17.55;26.92;99629.00;5060491;28;45854;-48
2022/12/14 09:56:53;;;;;;;;;17.75;13.25;;;;;17.54;26.76;99632.53;5060716;28;45412;-45
2022/12/14 09:59:19;;;;;;;;;17.75;13.25;;;;;17.56;27.05;99630.66;5065127;28;45434;-41
2022/12/14 10:02:21;;;;;;;;;13.25;13.25;;;;;17.56;26.75;99629.81;5065428;28;46967;-43
2022/12/14 10:05:17;;;;;;;;;16.25;15.25;;;;;17.56;26.82;99624.56;5049088;28;45340;-41
2022/12/14 10:08:09;;;;;;;;;18.50;14.50;;;;;17.54;26.75;99622.06;5044054;28;45347;-42
2022/12/14 10:11:02;;;;;;;;;13.75;13.75;;;;;17.55;26.75;99629.00;5059910;28;45221;-45
2022/12/14 10:13:50;;;;;;;;;17.00;16.75;;;;;17.54;26.82;99636.91;5058139;28;46701;-44
2022/12/14 10:16:36;;;;;;;;;17.00;17.00;;;;;17.53;26.77;99627.41;5058262;28;45241;-43
2022/12/14 10:19:33;;;;;;;;;13.25;13.25;;;;;17.51;26.73;99627.47;5058363;28;45357;-46
2022/12/14 10:22:05;;;;;;;;;17.00;12.50;;;;;17.50;26.74;99633.66;5059085;28;45320;-44
2022/12/14 10:24:40;;;;;;;;;18.00;15.25;;;;;17.50;26.75;99633.66;5064339;28;46216;-44
2022/12/14 10:27:08;;;;;;;;;14.50;13.75;;;;;17.49;26.65;99629.34;5071034;28;45227;-46
2022/12/14 10:29:40;;;;;;;;;20.00;15.25;;;;;17.48;26.80;99626.84;5067184;28;45437;-45
2022/12/14 10:32:20;;;;;;;;;15.50;15.25;;;;;17.47;26.67;99631.25;5068426;28;45226;-40
2022/12/14 10:34:47;;;;;;;;;16.75;15.00;;;;;17.46;26.75;99629.56;5059458;28;47011;-40
2022/12/14 10:37:23;;;;;;;;;15.25;12.75;;;;;17.47;26.59;99636.47;5059698;28;45324;-40
2022/12/14 10:40:09;;;;;;;;;15.75;15.50;;;;;17.45;26.69;99628.69;5060116;28;45233;-45
2022/12/14 10:42:50;;;;;;;;;15.50;15.50;;;;;17.46;26.67;99626.94;5059939;28;45229;-42
2022/12/14 10:45:20;;;;;;;;;18.25;17.75;;;;;17.43;26.67;99629.75;5064197;28;46204;-41
2022/12/14 10:47:51;;;;;;;;;16.00;13.50;;;;;17.44;26.66;99631.44;5062657;28;45901;-42
2022/12/14 10:50:51;;;;;;;;;15.50;14.50;;;;;17.41;26.51;99626.38;5067933;28;45292;-45
2022/12/14 10:53:24;;;;;;;;;13.25;13.00;;;;;17.39;26.72;99629.09;5054809;28;45360;-44
2022/12/14 10:56:02;;;;;;;;;16.25;16.25;;;;;17.38;26.68;99635.25;5068402;28;47751;-41
2022/12/14 10:58:27;;;;;;;;;18.75;12.75;;;;;17.37;26.70;99635.34;5072040;28;45226;-41
2022/12/14 11:00:53;;;;;;;;;13.67;12.33;;;;;17.34;26.57;99635.53;5070202;28;46024;-41
2022/12/14 11:03:19;;;;;;;;;24.00;18.50;;;;;17.34;26.56;99641.59;5070646;28;45325;-41
2022/12/14 11:06:02;;;;;;;;;16.25;13.25;;;;;17.33;26.66;99652.19;5065079;28;47073;-45
2022/12/14 11:08:48;;;;;;;;;23.00;17.00;;;;;17.30;26.79;99646.19;5053398;28;45418;-42
2022/12/14 11:11:21;;;;;;;;;14.25;13.25;;;;;17.27;26.66;99649.00;5066728;28;45448;-42
2022/12/14 11:13:48;;;;;;;;;12.00;11.50;;;;;17.27;26.93;99651.63;5076005;28;44722;-41
2022/12/14 11:16:34;;;;;;;;;16.50;14.50;;;;;17.24;26.81;99646.59;5074924;28;45374;-43
2022/12/14 11:19:01;;;;;;;;;14.25;11.75;;;;;17.23;26.80;99644.03;5064922;28;45276;-41
2022/12/14 11:21:33;;;;;;;;;18.75;15.75;;;;;17.24;26.81;99640.47;5045417;28;45331;-42
2022/12/14 11:24:00;;;;;;;;;20.75;16.00;;;;;17.21;26.82;99636.28;5065235;28;45466;-43
2022/12/14 11:26:32;;;;;;;;;17.00;15.50;;;;;17.19;26.82;99642.56;5076518;28;46245;-47
2022/12/14 11:29:01;;;;;;;;;18.00;15.50;;;;;17.19;26.70;99646.00;5057684;28;45587;-40
2022/12/14 11:31:39;;;;;;;;;18.25;17.00;;;;;17.18;26.71;99640.88;5057234;28;45374;-41
2022/12/14 11:34:18;;;;;;;;;19.25;16.00;;;;;17.17;26.70;99647.03;5057329;28;45392;-40
2022/12/14 11:37:20;;;;;;;;;18.25;15.50;;;;;17.15;26.89;99647.09;5056177;28;46844;-41
2022/12/14 11:39:50;;;;;;;;;20.00;14.50;;;;;17.13;26.72;99662.91;5056393;28;45232;-41
2022/12/14 11:42:18;;;;;;;;;17.75;15.00;;;;;17.12;26.75;99657.78;5058086;28;45353;-41
2022/12/14 11:44:45;;;;;;;;;20.25;16.25;;;;;17.10;26.70;99660.47;5059509;28;45489;-42
2022/12/14 11:47:17;;;;;;;;;15.75;13.50;;;;;17.08;26.98;99654.50;5056645;28;45519;-41
2022/12/14 11:49:52;;;;;;;;;16.50;13.75;;;;;17.09;26.91;99657.97;5056807;28;45479;-41
2022/12/14 11:52:36;;;;;;;;;22.75;16.25;;;;;17.08;26.74;99667.59;5058811;28;45322;-43
2022/12/14 11:55:18;;;;;;;;;16.25;15.00;;;;;17.08;26.94;99661.50;5060723;28;45424;-44
2022/12/14 11:57:54;;;;;;;;;19.50;16.50;;;;;17.07;26.93;99654.59;5058659;28;46757;-42
2022/12/14 12:00:40;;;;;;;;;20.00;16.00;;;;;17.05;26.73;99651.22;5071112;28;45398;-43
2022/12/14 12:03:25;;;;;;;;;19.75;18.50;;;;;17.05;26.74;99656.44;5065602;28;44747;-42
2022/12/14 12:05:52;;;;;;;;;18.50;15.25;;;;;17.02;26.73;99652.25;5066501;28;45565;-42
2022/12/14 12:08:22;;;;;;;;;17.75;17.00;;;;;17.02;26.88;99651.41;5056980;28;45418;-43
2022/12/14 12:10:50;;;;;;;;;18.00;16.75;;;;;17.02;27.07;99651.41;5056350;28;45854;-44
2022/12/14 12:13:38;;;;;;;;;19.00;18.50;;;;;17.00;26.88;99649.72;5056201;28;45441;-44
2022/12/14 12:16:13;;;;;;;;;15.00;14.50;;;;;16.97;26.83;99638.59;5056634;28;45539;-42
2022/12/14 12:18:57;;;;;;;;;20.25;17.50;;;;;16.97;26.82;99644.66;5055962;28;47254;-43
2022/12/14 12:21:28;;;;;;;;;19.75;17.25;;;;;16.96;26.86;99647.38;5056154;28;45307;-41
2022/12/14 12:24:06;;;;;;;;;13.75;12.75;;;;;16.94;26.79;99647.47;5058697;28;45466;-41
2022/12/14 12:26:41;;;;;;;;;20.50;13.75;;;;;16.92;26.72;99657.13;5059491;28;45391;-42
2022/12/14 12:29:15;;;;;;;;;16.50;14.75;;;;;16.90;26.78;99653.78;5060438;28;46412;-42
2022/12/14 12:32:05;;;;;;;;;19.25;15.75;;;;;16.90;27.02;99652.94;5066486;28;45340;-41
2022/12/14 12:34:40;;;;;;;;;16.25;15.75;;;;;16.87;26.92;99659.19;5074295;28;45142;-42
2022/12/14 12:37:13;;;;;;;;;17.00;14.75;;;;;16.85;26.88;99659.28;5074878;28;45170;-40
2022/12/14 12:39:40;;;;;;;;;22.25;18.75;;;;;16.84;27.08;99664.59;5059401;28;45378;-40
2022/12/14 12:42:23;;;;;;;;;18.25;16.50;;;;;16.85;26.93;99677.63;5058493;28;45324;-43
2022/12/14 12:45:04;;;;;;;;;17.25;15.50;;;;;16.84;26.59;99675.94;5061002;28;45339;-41
2022/12/14 12:47:51;;;;;;;;;15.75;15.25;;;;;16.83;26.93;99671.63;5074383;28;45286;-41
2022/12/14 12:50:25;;;;;;;;;19.50;17.25;;;;;16.84;26.95;99680.31;5071530;28;47182;-42
2022/12/14 12:52:57;;;;;;;;;24.25;17.25;;;;;16.82;26.87;99679.53;5062212;28;45445;-45
2022/12/14 12:55:25;;;;;;;;;23.25;19.00;;;;;16.81;26.75;99667.41;5065214;28;45294;-43
2022/12/14 12:57:55;;;;;;;;;18.00;17.25;;;;;16.84;27.09;99667.22;5075760;28;45051;-46
2022/12/14 13:00:26;;;;;;;;;15.75;15.75;;;;;16.87;26.95;99667.06;5058830;28;45965;-41
2022/12/14 13:03:45;;;;;;;;;23.00;19.00;;;;;16.89;27.16;99656.47;5038224;28;46020;-45
2022/12/14 13:06:22;;;;;;;;;18.50;15.25;;;;;16.93;27.06;99653.59;5054444;28;45275;-44
2022/12/14 13:08:56;;;;;;;;;20.25;14.75;;;;;16.99;27.09;99657.66;5060706;28;45415;-43
2022/12/14 13:11:37;;;;;;;;;19.25;16.00;;;;;17.04;26.95;99657.38;5062392;28;47363;-42
2022/12/14 13:14:16;;;;;;;;;19.50;17.50;;;;;17.08;26.66;99664.13;5059632;28;45383;-44
2022/12/14 13:16:42;;;;;;;;;20.25;17.25;;;;;17.13;26.89;99662.91;5064036;28;45255;-41
2022/12/14 13:19:31;;;;;;;;;18.00;17.50;;;;;17.17;27.06;99663.56;5065507;28;45540;-43
2022/12/14 13:21:58;;;;;;;;;18.00;17.50;;;;;17.21;26.74;99656.38;5062031;28;47413;-41
2022/12/14 13:24:24;;;;;;;;;15.75;14.25;;;;;17.25;26.88;99650.84;5059075;28;45912;-41
2022/12/14 13:27:14;;;;;;;;;19.25;17.75;;;;;17.28;26.75;99652.47;5075125;28;45150;-42
2022/12/14 13:30:13;;;;;;;;;13.00;13.00;;;;;17.31;26.87;99655.75;5047612;28;45405;-41
2022/12/14 13:33:04;;;;;;;;;20.50;17.00;;;;;17.35;26.84;99653.78;5058634;28;47245;-43
2022/12/14 13:35:38;;;;;;;;;14.50;14.50;;;;;17.38;26.72;99656.22;5057316;28;45943;-44
2022/12/14 13:38:22;;;;;;;;;15.00;11.25;;;;;17.40;26.63;99664.81;5058528;28;45505;-42
2022/12/14 13:41:00;;;;;;;;;22.00;18.25;;;;;17.45;26.73;99675.03;5059180;28;45486;-46
2022/12/14 13:43:34;;;;;;;;;23.00;19.25;;;;;17.45;26.72;99680.25;5061681;28;46234;-43
2022/12/14 13:46:20;;;;;;;;;20.25;15.75;;;;;17.49;26.70;99673.88;5060759;28;45877;-43
2022/12/14 13:48:49;;;;;;;;;20.50;17.25;;;;;17.51;26.67;99674.63;5058937;28;45438;-44
2022/12/14 13:51:28;;;;;;;;;17.75;15.50;;;;;17.52;26.62;99670.25;5067530;28;45331;-42
2022/12/14 13:53:57;;;;;;;;;13.00;12.25;;;;;17.52;26.64;99665.84;5076765;28;47064;-42
2022/12/14 13:56:29;;;;;;;;;22.00;17.75;;;;;17.54;26.50;99670.97;5074635;28;45315;-41
2022/12/14 13:58:57;;;;;;;;;16.00;16.00;;;;;17.56;26.55;99676.97;5064283;28;45438;-47
2022/12/14 14:01:46;;;;;;;;;16.00;15.00;;;;;17.51;26.46;99669.41;5062459;28;45474;-41
2022/12/14 14:04:14;;;;;;;;;21.50;15.00;;;;;17.58;26.68;99680.34;5062157;28;47149;-43
2022/12/14 14:06:44;;;;;;;;;20.50;15.50;;;;;17.56;26.54;99677.81;5062591;28;45811;-43
2022/12/14 14:09:25;;;;;;;;;20.25;16.75;;;;;17.58;26.60;99685.59;5064249;28;45644;-43
2022/12/14 14:11:57;;;;;;;;;16.00;12.25;;;;;17.58;26.43;99681.16;5061694;28;45596;-43
2022/12/14 14:14:44;;;;;;;;;18.75;15.25;;;;;17.58;26.48;99686.41;5062748;28;45359;-42
2022/12/14 14:17:24;;;;;;;;;16.75;14.50;;;;;17.57;26.53;99689.13;5070246;28;45261;-43
2022/12/14 14:19:52;;;;;;;;;18.50;13.50;;;;;17.55;26.46;99686.63;5051448;28;44672;-45
2022/12/14 14:22:28;;;;;;;;;17.75;17.00;;;;;17.57;26.33;99694.38;5059661;28;45405;-40
2022/12/14 14:25:02;;;;;;;;;19.50;16.50;;;;;17.55;26.55;99696.25;5057398;28;46212;-43
2022/12/14 14:27:48;;;;;;;;;16.25;15.00;;;;;17.54;26.49;99699.78;5058329;28;45451;-44
2022/12/14 14:30:36;;;;;;;;;20.75;18.00;;;;;17.52;26.30;99696.44;5065642;28;45460;-44
2022/12/14 14:33:40;;;;;;;;;16.25;14.75;;;;;17.51;26.44;99702.63;5070404;28;45272;-42
2022/12/14 14:36:29;;;;;;;;;10.75;10.75;;;;;17.50;26.43;99700.94;5069067;28;45749;-42
2022/12/14 14:38:55;;;;;;;;;25.75;17.75;;;;;17.50;26.45;99722.72;5060597;28;45759;-43
2022/12/14 14:41:26;;;;;;;;;18.50;16.25;;;;;17.48;26.35;99731.63;5060744;28;45314;-44
2022/12/14 14:43:56;;;;;;;;;23.00;17.00;;;;;17.46;26.48;99726.47;5068752;28;45453;-42
2022/12/14 14:46:36;;;;;;;;;13.75;13.75;;;;;17.46;26.57;99739.56;5069194;28;45703;-46
2022/12/14 14:49:03;;;;;;;;;17.00;16.50;;;;;17.46;26.38;99736.97;5061576;28;45903;-43
2022/12/14 14:51:33;;;;;;;;;18.75;15.25;;;;;17.44;26.50;99730.97;5059183;28;45309;-45
2022/12/14 14:54:17;;;;;;;;;19.50;16.50;;;;;17.43;26.40;99729.28;5059211;28;45336;-45
2022/12/14 14:56:47;;;;;;;;;18.00;16.25;;;;;17.42;26.28;99722.34;5059690;28;45432;-43
2022/12/14 14:59:27;;;;;;;;;18.25;18.25;;;;;17.41;26.35;99723.28;5058976;28;45355;-42
2022/12/14 15:02:00;;;;;;;;;21.25;18.50;;;;;17.39;26.37;99715.53;5059569;28;45334;-41
2022/12/14 15:04:33;;;;;;;;;17.00;16.25;;;;;17.37;26.42;99709.53;5059684;28;45227;-43
2022/12/14 15:07:06;;;;;;;;;22.75;16.75;;;;;17.37;26.47;99727.88;5058179;28;47318;-43
2022/12/14 15:10:04;;;;;;;;;24.00;19.25;;;;;17.36;26.31;99738.44;5058156;28;45942;-40
2022/12/14 15:12:41;;;;;;;;;16.25;14.25;;;;;17.34;26.50;99742.91;5045485;28;45504;-45
2022/12/14 15:15:17;;;;;;;;;16.50;16.50;;;;;17.33;26.44;99739.44;5057749;28;45751;-43
2022/12/14 15:17:43;;;;;;;;;16.25;15.50;;;;;17.30;26.19;99740.47;5070834;28;46324;-42
2022/12/14 15:20:22;;;;;;;;;19.25;14.00;;;;;17.28;26.32;99744.97;5073358;28;45329;-41
2022/12/14 15:22:48;;;;;;;;;18.75;17.25;;;;;17.27;26.52;99740.66;5062854;28;45417;-41
2022/12/14 15:25:27;;;;;;;;;20.25;16.75;;;;;17.25;26.41;99737.28;5059538;28;45519;-43
2022/12/14 15:27:54;;;;;;;;;19.75;17.25;;;;;17.23;26.49;99744.41;5068285;28;46562;-42
2022/12/14 15:30:25;;;;;;;;;17.00;16.75;;;;;17.22;26.39;99737.47;5075758;28;45414;-43
2022/12/14 15:32:57;;;;;;;;;23.00;17.00;;;;;17.21;26.37;99740.16;5058770;28;45339;-42
2022/12/14 15:35:27;;;;;;;;;21.50;18.50;;;;;17.20;26.28;99754.22;5061628;28;45386;-41
2022/12/14 15:37:56;;;;;;;;;19.00;16.00;;;;;17.18;26.17;99746.44;5060384;28;45756;-43
2022/12/14 15:40:25;;;;;;;;;19.75;16.25;;;;;17.16;26.57;99748.28;5059282;28;45480;-42
2022/12/14 15:42:56;;;;;;;;;16.75;16.25;;;;;17.14;26.46;99742.31;5058312;28;45308;-42
2022/12/14 15:45:28;;;;;;;;;22.75;19.75;;;;;17.13;26.65;99738.84;5059989;28;45428;-43
2022/12/14 15:47:54;;;;;;;;;11.25;10.50;;;;;17.13;26.53;99748.50;5048906;28;47372;-40
2022/12/14 15:50:25;;;;;;;;;19.00;14.75;;;;;17.11;26.31;99750.34;5071159;28;45272;-42
2022/12/14 15:52:54;;;;;;;;;19.50;15.75;;;;;17.10;26.43;99756.50;5057367;28;45294;-45
2022/12/14 15:55:28;;;;;;;;;14.50;13.50;;;;;17.08;26.46;99761.84;5058661;28;45388;-41
2022/12/14 15:57:54;;;;;;;;;20.00;17.00;;;;;17.08;26.57;99766.22;5057869;28;47087;-43
2022/12/14 16:00:19;;;;;;;;;18.75;15.00;;;;;17.05;26.45;99758.53;5059579;28;45543;-42
2022/12/14 16:02:46;;;;;;;;;17.50;14.00;;;;;17.06;26.45;99775.94;5066511;28;45455;-43
2022/12/14 16:05:15;;;;;;;;;19.50;14.25;;;;;17.04;26.48;99785.66;5043487;28;45565;-43
2022/12/14 16:07:46;;;;;;;;;14.25;14.00;;;;;17.03;26.43;99774.34;5059202;28;46491;-44
2022/12/14 16:10:33;;;;;;;;;16.50;16.00;;;;;17.02;26.35;99761.34;5059665;28;45423;-41
2022/12/14 16:13:21;;;;;;;;;14.75;14.75;;;;;16.98;26.33;99766.75;5057503;28;45443;-42
2022/12/14 16:15:47;;;;;;;;;24.25;19.50;;;;;16.97;26.71;99770.31;5042119;28;45423;-44
2022/12/14 16:18:16;;;;;;;;;17.75;15.50;;;;;16.96;26.62;99789.56;5056601;28;46164;-44
2022/12/14 16:20:43;;;;;;;;;20.25;15.75;;;;;16.97;26.43;99788.63;5058006;28;45449;-42
2022/12/14 16:23:12;;;;;;;;;19.50;16.25;;;;;16.94;26.42;99786.19;5059257;28;45431;-43
2022/12/14 16:25:49;;;;;;;;;18.25;16.00;;;;;16.94;26.57;99796.66;5062232;28;45143;-42
2022/12/14 16:28:28;;;;;;;;;17.50;13.75;;;;;16.91;26.52;99786.34;5062149;28;46632;-42
2022/12/14 16:30:58;;;;;;;;;16.50;16.25;;;;;16.89;26.45;99789.94;5062178;28;46065;-40
2022/12/14 16:33:24;;;;;;;;;17.50;15.25;;;;;16.88;26.44;99791.75;5062563;28;45353;-41
2022/12/14 16:36:02;;;;;;;;;21.50;15.50;;;;;16.87;26.53;99787.44;5044079;28;45423;-43
2022/12/14 16:38:28;;;;;;;;;9.25;7.00;;;;;16.84;26.50;99780.59;5061288;28;45984;-40
2022/12/14 16:41:02;;;;;;;;;20.25;16.75;;;;;16.84;26.34;99782.38;5043342;28;45390;-41
2022/12/14 16:43:30;;;;;;;;;20.25;15.00;;;;;16.83;26.54;99764.97;5078869;28;45402;-42
2022/12/14 16:46:01;;;;;;;;;16.00;16.00;;;;;16.83;26.47;99778.06;5060819;28;45328;-41
2022/12/14 16:48:27;;;;;;;;;16.00;13.50;;;;;16.81;26.48;99775.53;5059593;28;45747;-42
2022/12/14 16:51:15;;;;;;;;;20.50;14.50;;;;;16.81;26.69;99770.31;5059511;28;45964;-42
2022/12/14 16:53:53;;;;;;;;;17.75;14.00;;;;;16.82;26.63;99777.22;5059415;28;45178;-43
2022/12/14 16:56:39;;;;;;;;;20.50;18.50;;;;;16.87;26.68;99784.00;5043400;28;45516;-40
2022/12/14 16:59:20;;;;;;;;;18.25;14.25;;;;;16.90;26.71;99787.28;5069341;28;46745;-43
2022/12/14 17:01:47;;;;;;;;;18.00;15.25;;;;;16.94;26.66;99780.13;5068019;28;45226;-43
2022/12/14 17:04:14;;;;;;;;;17.00;14.50;;;;;16.98;26.78;99792.94;5060950;28;45344;-40
2022/12/14 17:06:52;;;;;;;;;15.50;14.00;;;;;17.03;26.66;99794.47;5061564;28;45554;-44
2022/12/14 17:09:21;;;;;;;;;19.00;16.75;;;;;17.07;26.65;99798.56;5066866;28;46256;-46
2022/12/14 17:11:48;;;;;;;;;17.25;16.75;;;;;17.12;26.65;99801.78;5077744;28;45271;-42
2022/12/14 17:14:15;;;;;;;;;14.25;13.25;;;;;17.12;26.46;99797.38;5070443;28;45253;-41
2022/12/14 17:16:41;;;;;;;;;13.75;13.75;;;;;17.18;26.61;99798.81;5062728;28;45549;-46
2022/12/14 17:19:13;;;;;;;;;18.75;15.75;;;;;17.22;26.66;99800.31;5060082;28;45434;-41
2022/12/14 17:21:39;;;;;;;;;20.00;18.50;;;;;17.24;26.59;99797.59;5058960;28;45467;-44
2022/12/14 17:24:04;;;;;;;;;18.75;15.00;;;;;17.29;26.59;99785.94;5062018;28;45343;-44
2022/12/14 17:26:31;;;;;;;;;19.50;16.75;;;;;17.31;26.52;99786.69;5062780;28;45613;-41
2022/12/14 17:28:56;;;;;;;;;15.75;14.50;;;;;17.35;26.50;99783.91;5065611;28;46454;-42
2022/12/14 17:31:25;;;;;;;;;19.00;15.00;;;;;17.37;26.44;99789.88;5074527;28;45368;-41
2022/12/14 17:33:51;;;;;;;;;15.00;15.00;;;;;17.40;26.62;99792.31;5064827;28;45228;-42
2022/12/14 17:36:17;;;;;;;;;17.25;15.25;;;;;17.42;26.52;99793.06;5073108;28;45494;-41
2022/12/14 17:38:43;;;;;;;;;19.75;18.25;;;;;17.46;26.28;99799.81;5073322;28;46473;-44
2022/12/14 17:41:28;;;;;;;;;20.25;17.50;;;;;17.47;26.65;99806.75;5068947;28;44671;-41
2022/12/14 17:43:57;;;;;;;;;19.75;18.75;;;;;17.51;26.37;99828.38;5065824;28;45375;-44
2022/12/14 17:46:24;;;;;;;;;12.50;10.75;;;;;17.52;26.33;99838.75;5064031;28;45526;-43
2022/12/14 17:48:50;;;;;;;;;20.25;16.50;;;;;17.54;26.31;99839.50;5072123;28;46519;-43
2022/12/14 17:51:28;;;;;;;;;23.00;18.50;;;;;17.55;26.45;99828.09;5060185;28;45273;-44
2022/12/14 17:53:56;;;;;;;;;16.50;15.00;;;;;17.57;26.64;99831.47;5059619;28;45399;-45
2022/12/14 17:56:22;;;;;;;;;19.75;17.00;;;;;17.59;26.47;99836.63;5059781;28;45583;-43
2022/12/14 17:58:47;;;;;;;;;16.75;14.00;;;;;17.59;26.41;99845.31;5059972;28;45280;-45
2022/12/14 18:01:20;;;;;;;;;19.50;16.50;;;;;17.60;26.30;99854.03;5065610;28;45550;-44
2022/12/14 18:03:45;;;;;;;;;20.25;15.50;;;;;17.60;26.00;99857.47;5061896;28;45347;-42
2022/12/14 18:06:16;;;;;;;;;17.50;16.00;;;;;17.61;26.36;99853.94;5058834;28;45513;-43
2022/12/14 18:08:42;;;;;;;;;17.75;14.50;;;;;17.60;26.47;99854.84;5057540;28;46106;-43
2022/12/14 18:11:15;;;;;;;;;21.25;18.50;;;;;17.61;26.34;99853.09;5060058;28;45895;-40
2022/12/14 18:13:41;;;;;;;;;22.50;17.75;;;;;17.61;26.35;99860.97;5061155;28;45450;-42
2022/12/14 18:16:13;;;;;;;;;17.50;17.50;;;;;17.60;26.42;99867.97;5058281;28;45872;-42
2022/12/14 18:18:39;;;;;;;;;21.00;15.00;;;;;17.60;26.39;99878.44;5057896;28;46450;-43
2022/12/14 18:21:13;;;;;;;;;15.75;15.25;;;;;17.58;26.42;99872.44;5057720;28;45268;-43
2022/12/14 18:23:38;;;;;;;;;17.50;17.50;;;;;17.58;26.37;99872.44;5058082;28;45394;-41
2022/12/14 18:26:04;;;;;;;;;15.00;14.00;;;;;17.57;26.27;99868.16;5058856;28;51630;-40
2022/12/14 18:28:29;;;;;;;;;18.75;18.50;;;;;17.57;26.21;99880.41;5065109;28;45210;-40
2022/12/14 18:31:02;;;;;;;;;16.50;15.75;;;;;17.56;26.16;99881.34;5076431;28;44671;-43
2022/12/14 18:33:28;;;;;;;;;21.75;17.75;;;;;17.55;26.18;99890.13;5076495;28;45293;-40
2022/12/14 18:35:55;;;;;;;;;17.25;14.50;;;;;17.53;26.10;99890.22;5071625;28;45229;-45
2022/12/14 18:38:22;;;;;;;;;18.00;16.75;;;;;17.53;26.23;99881.53;5071244;28;45481;-45
2022/12/14 18:40:49;;;;;;;;;19.50;16.25;;;;;17.52;26.12;99883.28;5072667;28;45174;-43
2022/12/14 18:43:18;;;;;;;;;11.50;10.25;;;;;17.51;26.24;99888.63;5075117;28;45404;-43
2022/12/14 18:45:44;;;;;;;;;24.25;20.25;;;;;17.49;26.20;99890.50;5071401;28;45524;-48
2022/12/14 18:48:10;;;;;;;;;22.00;20.75;;;;;17.50;26.11;99886.94;5066249;28;48472;-42
2022/12/14 18:50:35;;;;;;;;;19.50;17.00;;;;;17.49;26.34;99890.50;5070253;28;45237;-43
2022/12/14 18:53:01;;;;;;;;;18.25;15.75;;;;;17.47;26.08;99887.97;5069136;28;45208;-40
2022/12/14 18:55:31;;;;;;;;;18.00;16.75;;;;;17.45;26.10;99901.13;5074332;28;44952;-44
2022/12/14 18:58:00;;;;;;;;;21.00;20.75;;;;;17.44;26.21;99896.81;5067830;28;47088;-40
2022/12/14 19:00:33;;;;;;;;;22.50;21.00;;;;;17.44;26.15;99898.59;5068470;28;45366;-42
2022/12/14 19:03:03;;;;;;;;;22.75;18.25;;;;;17.42;25.92;99893.44;5071705;28;45344;-40
2022/12/14 19:05:29;;;;;;;;;18.00;18.00;;;;;17.41;26.10;99893.53;5072570;28;44882;-41
2022/12/14 19:07:59;;;;;;;;;14.00;14.00;;;;;17.39;26.16;99898.00;5066593;28;46038;-43
2022/12/14 19:10:27;;;;;;;;;20.00;17.00;;;;;17.38;26.20;99888.47;5077527;28;45016;-42
2022/12/14 19:12:56;;;;;;;;;18.75;16.75;;;;;17.37;25.94;99892.00;5078399;28;44677;-42
2022/12/14 19:15:25;;;;;;;;;20.25;19.25;;;;;17.35;26.24;99899.13;5078984;28;44927;-40
2022/12/14 19:17:51;;;;;;;;;19.25;16.00;;;;;17.33;26.09;99899.22;5078673;28;45092;-41
2022/12/14 19:20:17;;;;;;;;;20.25;18.50;;;;;17.32;26.22;99910.63;5076157;28;45154;-43
2022/12/14 19:22:46;;;;;;;;;18.50;14.25;;;;;17.29;26.52;99914.25;5075493;28;44727;-45
2022/12/14 19:25:12;;;;;;;;;18.00;17.50;;;;;17.27;26.19;99923.97;5073526;28;45129;-42
2022/12/14 19:27:38;;;;;;;;;22.75;18.50;;;;;17.27;26.31;99928.38;5069524;28;45450;-43
2022/12/14 19:30:06;;;;;;;;;18.00;16.00;;;;;17.25;26.12;99928.44;5070432;28;45466;-41
2022/12/14 19:32:32;;;;;;;;;19.75;17.25;;;;;17.23;26.26;99938.19;5070367;28;45285;-44
2022/12/14 19:35:03;;;;;;;;;21.25;16.00;;;;;17.22;26.18;99936.50;5065818;28;45200;-42
2022/12/14 19:37:34;;;;;;;;;19.00;15.50;;;;;17.20;26.09;99938.34;5062010;28;47805;-43
2022/12/14 19:40:01;;;;;;;;;18.00;17.75;;;;;17.17;26.13;99935.88;5048435;28;45265;-42
2022/12/14 19:42:30;;;;;;;;;20.75;18.75;;;;;17.17;26.27;99938.50;5069746;28;45236;-40
2022/12/14 19:44:55;;;;;;;;;19.75;16.75;;;;;17.15;26.18;99928.13;5064712;28;45352;-41
2022/12/14 19:47:21;;;;;;;;;22.75;20.25;;;;;17.16;26.30;99926.34;5062485;28;45382;-43
2022/12/14 19:49:48;;;;;;;;;20.50;19.00;;;;;17.14;26.17;99923.00;5061028;28;45553;-40
2022/12/14 19:52:14;;;;;;;;;20.25;19.25;;;;;17.14;26.21;99928.22;5061469;28;45370;-42
2022/12/14 19:54:40;;;;;;;;;19.00;16.00;;;;;17.13;26.21;99931.78;5060184;28;45458;-42
2022/12/14 19:57:06;;;;;;;;;21.33;16.00;;;;;17.13;26.23;99926.53;5058670;28;47013;-44
2022/12/14 19:59:31;;;;;;;;;19.75;16.25;;;;;17.11;26.24;99917.91;5060798;28;45433;-43
2022/12/14 20:01:57;;;;;;;;;19.25;17.00;;;;;17.10;26.16;99921.47;5066439;28;44700;-42
2022/12/14 20:04:25;;;;;;;;;17.00;15.00;;;;;17.06;26.25;99907.69;5063089;28;45323;-42
2022/12/14 20:06:50;;;;;;;;;21.25;19.25;;;;;17.08;26.21;99918.06;5042700;28;48196;-42
2022/12/14 20:09:19;;;;;;;;;25.50;17.75;;;;;17.07;26.12;99919.00;5063529;28;45176;-43
2022/12/14 20:11:45;;;;;;;;;18.75;18.75;;;;;17.04;26.26;99920.03;5063731;28;45456;-41
2022/12/14 20:14:12;;;;;;;;;14.00;13.50;;;;;17.04;26.11;99927.00;5065754;28;45530;-42
2022/12/14 20:16:38;;;;;;;;;21.50;19.00;;;;;17.03;26.34;99930.59;5060573;28;45528;-42